Boone, IA

7:08 AM CST on February 23, 2017 (GMT -0600)
Boone Municipal

Weather History for KBNW - October, 2012

Change the Weather History Date:

Saturday, October 6, 2012

  Actual Average Record
Temperature  
Mean Temperature 38 °F -  
Max Temperature 45 °F 68 °F 93 °F (1963)
Min Temperature 32 °F 40 °F 25 °F (1976)
Degree Days  
Heating Degree Days 26    
Moisture  
Dew Point 24 °F    
Average Humidity 55    
Maximum Humidity 70    
Minimum Humidity 43    
Precipitation  
Precipitation 0.00 in - - ()
Sea Level Pressure  
Sea Level Pressure 30.27 in    
Wind  
Wind Speed 9 mph (NW)    
Max Wind Speed 18 mph    
Max Gust Speed 26 mph    
Visibility 10 miles    
Events      
Averages and records for this station are not official NWS values.
T = Trace of Precipitation, MM = Missing Value Source: NWS Daily Summary

Daily Weather History Graph

Daily Weather History Graph

Search for Another Location

Airport or City:

Trip Planner

Search our weather history database for the weather conditions in past years. The results will help you decide how hot, cold, wet, or windy it might be!

Date:

Astronomy

Oct. 06, 2012 Rise Set
Actual Time 7:18 AM CDT 6:47 PM CDT
Civil Twilight 6:50 AM CDT 7:15 PM CDT
Nautical Twilight 6:18 AM CDT 7:47 PM CDT
Astronomical Twilight 5:45 AM CDT 8:20 PM CDT
Moon 10:59 PM CDT (10/6) 1:18 PM CDT (10/6)
Length of Visible Light 12h 25m
Length of Day
11h 29m
Waning Gibbous, 65% of the Moon is Illuminated
Oct 6
Waning Gibbous
Oct 8
Last Quarter
Oct 15
New
Oct 21
First Quarter
Oct 29
Full

Hourly Weather History & Observations

Time (CDT) Temp. Windchill Dew Point Humidity Pressure Visibility Wind Dir Wind Speed Gust Speed Precip Events Conditions
12:15 AM 40.6 °F 34.8 °F 19.4 °F 43% 30.23 in 10.0 mi NW 9.2 mph - N/A   Clear
12:35 AM 40.3 °F 34.9 °F 20.3 °F 45% 30.24 in 10.0 mi NW 8.1 mph - N/A   Clear
12:55 AM 39.4 °F 34.5 °F 21.0 °F 48% 30.24 in 10.0 mi NW 6.9 mph - N/A   Clear
1:15 AM 38.1 °F 32.3 °F 20.5 °F 49% 30.24 in 10.0 mi WNW 8.1 mph - N/A   Clear
1:35 AM 36.5 °F 30.3 °F 20.3 °F 52% 30.25 in 10.0 mi WNW 8.1 mph - N/A   Clear
1:55 AM 36.5 °F 29.7 °F 21.0 °F 54% 30.25 in 10.0 mi WNW 9.2 mph - N/A   Clear
2:15 AM 36.0 °F 29.6 °F 20.8 °F 54% 30.25 in 10.0 mi WNW 8.1 mph - N/A   Clear
2:35 AM 35.6 °F 28.6 °F 21.2 °F 56% 30.25 in 10.0 mi WNW 9.2 mph - N/A   Clear
2:55 AM 35.2 °F 28.8 °F 21.6 °F 58% 30.25 in 10.0 mi WNW 8.1 mph - N/A   Clear
3:15 AM 34.7 °F 28.1 °F 21.7 °F 59% 30.24 in 10.0 mi WNW 8.1 mph - N/A   Clear
3:55 AM 34.0 °F 28.0 °F 21.6 °F 60% 30.24 in 10.0 mi West 6.9 mph - N/A   Clear
4:35 AM 32.5 °F 24.8 °F 21.7 °F 64% 30.25 in 10.0 mi West 9.2 mph - N/A   Clear
4:55 AM 32.9 °F 25.3 °F 21.7 °F 64% 30.25 in 10.0 mi WNW 9.2 mph - N/A   Clear
5:15 AM 32.5 °F 24.8 °F 21.6 °F 64% 30.25 in 10.0 mi WNW 9.2 mph - N/A   Clear
5:35 AM 32.0 °F 24.8 °F 21.6 °F 65% 30.25 in 10.0 mi WNW 8.1 mph - N/A   Clear
5:55 AM 32.0 °F 24.8 °F 21.7 °F 66% 30.25 in 10.0 mi WNW 8.1 mph - N/A   Clear
6:15 AM 32.0 °F 23.6 °F 21.9 °F 66% 30.25 in 10.0 mi WNW 10.4 mph - N/A   Clear
6:55 AM 32.0 °F 22.1 °F 22.5 °F 68% 30.26 in 10.0 mi NW 13.8 mph 17.3 mph N/A   Clear
7:15 AM 32.0 °F 22.5 °F 22.6 °F 68% 30.26 in 10.0 mi NW 12.7 mph - N/A   Clear
7:35 AM 32.0 °F 23.0 °F 22.8 °F 69% 30.27 in 10.0 mi NW 11.5 mph 18.4 mph N/A   Clear
7:55 AM 32.0 °F 22.5 °F 23.2 °F 70% 30.28 in 10.0 mi WNW 12.7 mph 17.3 mph N/A   Clear
8:15 AM 33.3 °F 24.6 °F 24.4 °F 70% 30.28 in 10.0 mi WNW 11.5 mph 17.3 mph N/A   Clear
8:35 AM 34.7 °F 26.4 °F 24.8 °F 67% 30.29 in 10.0 mi NW 11.5 mph 20.7 mph N/A   Clear
8:55 AM 36.3 °F 27.5 °F 25.3 °F 64% 30.29 in 10.0 mi NW 13.8 mph 21.9 mph N/A   Clear
9:15 AM 38.3 °F 30.9 °F 25.9 °F 61% 30.30 in 10.0 mi NW 11.5 mph - N/A   Clear
9:35 AM 39.9 °F 31.8 °F 26.2 °F 58% 30.31 in 10.0 mi NW 15.0 mph 18.4 mph N/A   Scattered Clouds
9:55 AM 40.6 °F 32.0 °F 26.2 °F 57% 30.31 in 10.0 mi NNW 17.3 mph 26.5 mph N/A   Mostly Cloudy
10:15 AM 41.2 °F 32.7 °F 26.4 °F 56% 30.31 in 10.0 mi NNW 17.3 mph 26.5 mph N/A   Overcast
10:35 AM 41.4 °F 32.7 °F 26.4 °F 55% 30.31 in 10.0 mi NNW 18.4 mph 21.9 mph N/A   Overcast
10:55 AM 41.7 °F 35.2 °F 26.8 °F 55% 30.31 in 10.0 mi NW 11.5 mph 26.5 mph N/A   Overcast
11:15 AM 43.2 °F 35.9 °F 26.6 °F 52% 30.30 in 10.0 mi NNW 15.0 mph 24.2 mph N/A   Overcast
11:35 AM 43.5 °F 35.8 °F 26.2 °F 51% 30.30 in 10.0 mi NNW 17.3 mph 24.2 mph N/A   Overcast
11:55 AM 43.7 °F 36.0 °F 26.6 °F 51% 30.30 in 10.0 mi NNW 17.3 mph 20.7 mph N/A   Overcast
12:15 PM 44.1 °F 38.6 °F 26.6 °F 50% 30.30 in 10.0 mi NNW 10.4 mph 19.6 mph N/A   Overcast
12:35 PM 44.8 °F 37.4 °F 27.0 °F 50% 30.30 in 10.0 mi NNW 17.3 mph - N/A   Overcast
12:55 PM 45.0 °F 37.9 °F 26.6 °F 49% 30.29 in 10.0 mi NNW 16.1 mph 20.7 mph N/A   Overcast
1:15 PM 44.8 °F 39.4 °F 26.2 °F 48% 30.29 in 10.0 mi NW 10.4 mph - N/A   Overcast
1:35 PM 45.5 °F 40.8 °F 26.6 °F 48% 30.29 in 10.0 mi NW 9.2 mph 17.3 mph N/A   Overcast
1:55 PM 45.0 °F 39.3 °F 26.2 °F 48% 30.29 in 10.0 mi NW 11.5 mph - N/A   Overcast
2:15 PM 44.8 °F 39.4 °F 25.9 °F 48% 30.28 in 10.0 mi NNW 10.4 mph 18.4 mph N/A   Overcast
2:35 PM 45.0 °F 41.8 °F 26.2 °F 48% 30.28 in 10.0 mi NNW 5.8 mph - N/A   Overcast
2:55 PM 45.5 °F 41.3 °F 25.7 °F 46% 30.28 in 10.0 mi NW 8.1 mph - N/A   Overcast
3:15 PM 45.5 °F 40.3 °F 25.5 °F 46% 30.28 in 10.0 mi NW 10.4 mph - N/A   Overcast
3:35 PM 45.5 °F 39.6 °F 25.5 °F 46% 30.28 in 10.0 mi NNW 12.7 mph - N/A   Overcast
3:55 PM 45.5 °F 41.8 °F 25.0 °F 45% 30.27 in 10.0 mi NW 6.9 mph 25.3 mph N/A   Overcast
4:15 PM 45.7 °F 40.6 °F 25.0 °F 44% 30.27 in 10.0 mi NW 10.4 mph - N/A   Overcast
4:35 PM 45.5 °F 41.3 °F 25.2 °F 45% 30.27 in 10.0 mi NW 8.1 mph - N/A   Overcast
4:55 PM 45.5 °F 39.9 °F 25.3 °F 45% 30.26 in 10.0 mi NW 11.5 mph - N/A   Overcast
5:15 PM 45.7 °F 41.0 °F 25.7 °F 46% 30.26 in 10.0 mi NNW 9.2 mph - N/A   Overcast
5:35 PM 45.1 °F 40.8 °F 25.9 °F 47% 30.26 in 10.0 mi NW 8.1 mph - N/A   Overcast
5:55 PM 45.0 °F 40.1 °F 25.9 °F 47% 30.26 in 10.0 mi NNW 9.2 mph - N/A   Overcast
6:15 PM 44.8 °F 39.9 °F 26.1 °F 48% 30.26 in 10.0 mi North 9.2 mph - N/A   Overcast
6:35 PM 44.6 °F 39.7 °F 25.7 °F 48% 30.26 in 10.0 mi NNW 9.2 mph - N/A   Overcast
6:55 PM 44.1 °F 40.8 °F 25.9 °F 49% 30.26 in 10.0 mi North 5.8 mph - N/A   Overcast
7:15 PM 43.3 °F 39.2 °F 26.6 °F 52% 30.27 in 10.0 mi NNW 6.9 mph - N/A   Overcast
7:35 PM 42.3 °F 37.9 °F 26.4 °F 54% 30.27 in 10.0 mi NNW 6.9 mph - N/A   Overcast
7:55 PM 41.4 °F 36.8 °F 25.7 °F 54% 30.28 in 10.0 mi NNW 6.9 mph - N/A   Scattered Clouds
8:15 PM 40.1 °F 36.1 °F 25.7 °F 56% 30.28 in 10.0 mi NNW 5.8 mph - N/A   Mostly Cloudy
8:35 PM 38.7 °F 36.3 °F 25.3 °F 59% 30.28 in 10.0 mi NW 3.5 mph - N/A   Mostly Cloudy
8:55 PM 39.6 °F 37.4 °F 24.4 °F 55% 30.29 in 10.0 mi NW 3.5 mph - N/A   Scattered Clouds
9:15 PM 40.1 °F 38.0 °F 24.4 °F 54% 30.28 in 10.0 mi NW 3.5 mph - N/A   Mostly Cloudy
9:35 PM 38.7 °F 36.3 °F 23.7 °F 55% 30.28 in 10.0 mi NW 3.5 mph - N/A   Scattered Clouds
9:55 PM 39.2 °F 37.0 °F 23.7 °F 54% 30.29 in 10.0 mi WNW 3.5 mph - N/A   Clear
10:15 PM 38.3 °F 35.9 °F 24.3 °F 57% 30.29 in 10.0 mi West 3.5 mph - N/A   Clear
10:35 PM 38.5 °F 36.1 °F 23.9 °F 56% 30.28 in 10.0 mi NW 3.5 mph - N/A   Clear
10:55 PM 38.3 °F - 23.9 °F 56% 30.28 in 10.0 mi Calm Calm - N/A   Clear
11:15 PM 37.2 °F - 24.3 °F 60% 30.28 in 10.0 mi Calm Calm - N/A   Clear
11:35 PM 35.1 °F 32.2 °F 24.6 °F 66% 30.28 in 10.0 mi West 3.5 mph - N/A   Clear
11:55 PM 33.3 °F 28.9 °F 24.3 °F 70% 30.28 in 10.0 mi West 4.6 mph - N/A   Clear